createdAt,value
2024-02-18T00:00:06.144Z,92.05
2024-02-18T00:02:36.286Z,92.22
2024-02-18T00:05:05.885Z,92.11
2024-02-18T00:07:33.285Z,92.28
2024-02-18T00:10:00.272Z,91.76
2024-02-18T00:12:27.142Z,91.72
2024-02-18T00:14:53.963Z,91.95
2024-02-18T00:17:20.699Z,92.20
2024-02-18T00:19:47.762Z,92.23
2024-02-18T00:22:14.712Z,92.45
2024-02-18T00:24:41.695Z,92.60
2024-02-18T00:27:10.814Z,92.23
2024-02-18T00:29:37.681Z,92.10
2024-02-18T00:32:04.715Z,92.41
2024-02-18T00:34:31.914Z,92.58
2024-02-18T00:36:58.947Z,92.75
2024-02-18T00:39:25.983Z,92.78
2024-02-18T00:41:52.768Z,93.09
2024-02-18T00:44:20.783Z,93.17
2024-02-18T00:46:57.153Z,93.08
2024-02-18T00:49:30.802Z,93.45
2024-02-18T00:51:57.668Z,93.09
2024-02-18T00:54:24.557Z,93.29
2024-02-18T00:56:51.521Z,93.17
2024-02-18T00:59:18.396Z,93.19
2024-02-18T01:01:45.433Z,92.90
2024-02-18T01:04:12.476Z,92.74
2024-02-18T01:06:39.910Z,92.61
2024-02-18T01:09:06.692Z,92.74
2024-02-18T01:11:33.604Z,93.06
2024-02-18T01:14:00.421Z,92.83
2024-02-18T01:16:30.233Z,92.92
2024-02-18T01:18:57.396Z,92.81
2024-02-18T01:21:24.329Z,92.77
2024-02-18T01:23:51.165Z,92.96
2024-02-18T01:26:17.900Z,92.97
2024-02-18T01:28:44.635Z,92.65
2024-02-18T01:31:11.410Z,92.88
2024-02-18T01:33:38.408Z,92.60
2024-02-18T01:36:05.647Z,92.63
2024-02-18T01:38:33.748Z,92.70
2024-02-18T01:41:00.602Z,92.72
2024-02-18T01:43:27.605Z,92.45
2024-02-18T01:45:54.370Z,92.38
2024-02-18T01:48:21.818Z,93.12
2024-02-18T01:50:49.157Z,93.16
2024-02-18T01:53:16.286Z,92.88
2024-02-18T01:55:43.489Z,93.03
2024-02-18T01:58:10.359Z,93.02
2024-02-18T02:00:40.412Z,93.28
2024-02-18T02:03:08.476Z,92.80
2024-02-18T02:05:39.411Z,92.44
2024-02-18T02:08:06.766Z,92.95
2024-02-18T02:10:33.876Z,93.47
2024-02-18T02:13:00.993Z,93.46
2024-02-18T02:15:27.933Z,93.63
2024-02-18T02:17:54.866Z,93.57
2024-02-18T02:20:21.761Z,93.33
2024-02-18T02:22:48.497Z,92.98
2024-02-18T02:25:15.786Z,92.84
2024-02-18T02:27:43.922Z,92.78
2024-02-18T02:30:11.224Z,92.63
2024-02-18T02:32:38.075Z,92.92
2024-02-18T02:35:05.457Z,92.96
2024-02-18T02:37:32.882Z,92.61
2024-02-18T02:39:59.820Z,92.98
2024-02-18T02:42:27.285Z,92.76
2024-02-18T02:44:54.025Z,92.96
2024-02-18T02:47:20.847Z,92.73
2024-02-18T02:49:47.797Z,92.97
2024-02-18T02:52:14.940Z,92.86
2024-02-18T02:54:41.763Z,92.88
2024-02-18T02:57:08.758Z,93.09
2024-02-18T02:59:35.492Z,92.74
2024-02-18T03:02:02.318Z,92.88
2024-02-18T03:04:29.232Z,92.47
2024-02-18T03:06:56.148Z,92.60
2024-02-18T03:09:23.012Z,92.64
2024-02-18T03:11:49.909Z,92.78
2024-02-18T03:14:16.715Z,92.23
2024-02-18T03:16:44.445Z,92.00
2024-02-18T03:19:12.593Z,92.37
2024-02-18T03:21:39.940Z,92.31
2024-02-18T03:24:06.793Z,92.44
2024-02-18T03:26:33.751Z,92.04
2024-02-18T03:29:00.565Z,92.19
2024-02-18T03:31:27.306Z,92.26
2024-02-18T03:33:54.210Z,92.39
2024-02-18T03:36:21.027Z,92.24
2024-02-18T03:38:47.863Z,92.30
2024-02-18T03:41:14.894Z,92.66
2024-02-18T03:43:41.697Z,92.27
2024-02-18T03:46:09.716Z,92.35
2024-02-18T03:48:36.957Z,92.26
2024-02-18T03:51:03.734Z,92.29
2024-02-18T03:53:30.466Z,91.97
2024-02-18T03:55:57.214Z,91.97
2024-02-18T03:58:24.708Z,91.75
2024-02-18T04:00:51.772Z,91.76
2024-02-18T04:03:18.604Z,91.54
2024-02-18T04:05:45.615Z,91.57
2024-02-18T04:08:12.654Z,91.23
2024-02-18T04:10:39.370Z,90.93
2024-02-18T04:13:06.065Z,90.49
2024-02-18T04:15:32.919Z,90.45
2024-02-18T04:17:59.824Z,89.99
2024-02-18T04:20:26.601Z,90.08
2024-02-18T04:22:53.370Z,89.51
2024-02-18T04:25:20.211Z,89.39
2024-02-18T04:27:47.063Z,89.34
2024-02-18T04:30:14.196Z,89.28
2024-02-18T04:32:41.212Z,88.98
2024-02-18T04:35:08.252Z,89.04
2024-02-18T04:37:35.169Z,89.06
2024-02-18T04:40:02.143Z,88.69
2024-02-18T04:42:28.909Z,88.66
2024-02-18T04:44:55.746Z,88.72
2024-02-18T04:47:23.865Z,88.57
2024-02-18T04:49:50.854Z,88.75
2024-02-18T04:52:17.648Z,88.51
2024-02-18T04:54:44.621Z,88.80
2024-02-18T04:57:11.557Z,88.47
2024-02-18T04:59:38.613Z,88.09
2024-02-18T05:02:05.796Z,87.97
2024-02-18T05:04:33.412Z,88.59
2024-02-18T05:07:01.182Z,88.49
2024-02-18T05:09:28.168Z,88.72
2024-02-18T05:11:55.619Z,88.23
2024-02-18T05:14:22.791Z,88.02
2024-02-18T05:16:49.759Z,87.50
2024-02-18T05:19:17.470Z,87.38
2024-02-18T05:21:44.441Z,87.17
2024-02-18T05:24:11.350Z,87.46
2024-02-18T05:26:38.132Z,87.42
2024-02-18T05:29:04.877Z,87.21
2024-02-18T05:31:31.650Z,86.93
2024-02-18T05:33:58.925Z,86.08
2024-02-18T05:36:25.907Z,86.30
2024-02-18T05:38:52.811Z,85.68
2024-02-18T05:41:19.568Z,85.51
2024-02-18T05:43:46.410Z,85.92
2024-02-18T05:46:13.259Z,85.40
2024-02-18T05:48:40.703Z,85.19
2024-02-18T05:51:08.736Z,85.53
2024-02-18T05:53:35.919Z,85.55
2024-02-18T05:56:02.763Z,85.23
2024-02-18T05:58:29.762Z,85.27
2024-02-18T06:00:56.868Z,85.10
2024-02-18T06:03:23.781Z,85.58
2024-02-18T06:05:50.734Z,84.99
2024-02-18T06:08:17.815Z,85.75
2024-02-18T06:10:44.813Z,85.76
2024-02-18T06:13:11.984Z,85.54
2024-02-18T06:15:38.906Z,86.17
2024-02-18T06:18:06.022Z,86.42
2024-02-18T06:20:32.774Z,86.80
2024-02-18T06:22:59.613Z,86.01
2024-02-18T06:25:26.461Z,86.71
2024-02-18T06:27:53.502Z,87.21
2024-02-18T06:30:20.478Z,87.73
2024-02-18T06:32:47.311Z,87.52
2024-02-18T06:35:14.206Z,87.60
2024-02-18T06:37:42.919Z,87.65
2024-02-18T06:40:11.219Z,87.08
2024-02-18T06:42:38.187Z,87.06
2024-02-18T06:45:05.298Z,87.40
2024-02-18T06:47:32.408Z,89.19
2024-02-18T06:49:59.524Z,89.07
2024-02-18T06:52:26.369Z,90.42
2024-02-18T06:54:53.188Z,90.13
2024-02-18T06:57:20.037Z,89.47
2024-02-18T06:59:46.750Z,89.54
2024-02-18T07:02:13.716Z,89.33
2024-02-18T07:04:40.649Z,89.81
2024-02-18T07:07:07.509Z,89.80
2024-02-18T07:09:34.274Z,89.69
2024-02-18T07:12:01.252Z,89.62
2024-02-18T07:14:27.982Z,89.24
2024-02-18T07:16:54.750Z,90.24
2024-02-18T07:19:21.586Z,90.28
2024-02-18T07:21:48.424Z,90.77
2024-02-18T07:24:15.197Z,91.15
2024-02-18T07:26:41.954Z,92.14
2024-02-18T07:29:08.742Z,93.85
2024-02-18T07:31:38.346Z,93.32
2024-02-18T07:34:06.049Z,93.05
2024-02-18T07:36:34.442Z,92.23
2024-02-18T07:39:01.301Z,91.78
2024-02-18T07:41:28.036Z,91.67
2024-02-18T07:43:54.878Z,91.84
2024-02-18T07:46:22.006Z,92.23
2024-02-18T07:48:48.956Z,92.74
2024-02-18T07:51:15.766Z,92.75
2024-02-18T07:53:42.584Z,92.99
2024-02-18T07:56:09.688Z,92.80
2024-02-18T07:58:36.478Z,92.89
2024-02-18T08:01:03.326Z,93.16
2024-02-18T08:03:30.153Z,92.25
2024-02-18T08:05:56.957Z,92.57
2024-02-18T08:08:23.879Z,92.42
2024-02-18T08:10:51.040Z,92.86
2024-02-18T08:13:18.108Z,92.76
2024-02-18T08:15:45.172Z,92.60
2024-02-18T08:18:12.162Z,93.49
2024-02-18T08:20:41.908Z,93.12
2024-02-18T08:23:09.165Z,93.40
2024-02-18T08:25:36.566Z,93.53
2024-02-18T08:28:04.051Z,93.63
2024-02-18T08:30:30.916Z,93.56
2024-02-18T08:32:57.732Z,93.59
2024-02-18T08:35:24.719Z,93.48
2024-02-18T08:37:51.981Z,93.11
2024-02-18T08:40:18.999Z,93.10
2024-02-18T08:42:46.015Z,92.76
2024-02-18T08:45:12.830Z,92.91
2024-02-18T08:47:39.683Z,93.27
2024-02-18T08:50:07.391Z,93.35
2024-02-18T08:52:34.376Z,93.12
2024-02-18T08:55:01.297Z,92.96
2024-02-18T08:57:28.289Z,92.66
2024-02-18T08:59:56.365Z,93.12
2024-02-18T09:02:23.108Z,93.07
2024-02-18T09:04:50.369Z,93.16
2024-02-18T09:07:17.359Z,93.18
2024-02-18T09:09:44.192Z,92.92
2024-02-18T09:12:11.001Z,93.02
2024-02-18T09:14:37.729Z,93.19
2024-02-18T09:17:04.534Z,92.91
2024-02-18T09:19:31.363Z,92.85
2024-02-18T09:21:58.458Z,92.91
2024-02-18T09:24:27.882Z,93.14
2024-02-18T09:27:32.280Z,93.22
2024-02-18T09:29:59.085Z,92.33
2024-02-18T09:32:25.895Z,91.89
2024-02-18T09:34:52.995Z,91.64
2024-02-18T09:37:20.103Z,91.61
2024-02-18T09:39:46.917Z,91.65
2024-02-18T09:42:14.181Z,91.33
2024-02-18T09:44:43.425Z,91.43
2024-02-18T09:47:13.595Z,91.39
2024-02-18T09:49:40.644Z,91.31
2024-02-18T09:52:07.704Z,91.30
2024-02-18T09:54:35.492Z,91.46
2024-02-18T09:57:02.501Z,91.17
2024-02-18T09:59:29.687Z,91.28
2024-02-18T10:02:00.749Z,91.28
2024-02-18T10:04:27.607Z,91.06
2024-02-18T10:06:55.493Z,90.60
2024-02-18T10:09:24.979Z,90.49
2024-02-18T10:11:53.006Z,90.52
2024-02-18T10:14:24.253Z,90.37
2024-02-18T10:16:51.125Z,90.52
2024-02-18T10:19:18.018Z,90.35
2024-02-18T10:21:45.272Z,90.44
2024-02-18T10:24:13.335Z,90.55
2024-02-18T10:26:40.036Z,90.58
2024-02-18T10:29:06.864Z,90.64
2024-02-18T10:31:34.254Z,90.73
2024-02-18T10:34:01.293Z,90.74
2024-02-18T10:36:31.317Z,90.30
2024-02-18T10:38:59.353Z,90.51
2024-02-18T10:41:33.877Z,90.30
2024-02-18T10:44:01.893Z,90.40
2024-02-18T10:46:28.743Z,90.74
2024-02-18T10:49:02.332Z,90.36
2024-02-18T10:51:39.145Z,90.51
2024-02-18T10:54:41.513Z,90.77
2024-02-18T10:57:08.358Z,91.08
2024-02-18T11:00:08.852Z,90.90
2024-02-18T11:03:01.775Z,90.76
2024-02-18T11:09:42.680Z,90.83
2024-02-18T11:12:10.253Z,90.69
2024-02-18T11:14:38.428Z,90.54
2024-02-18T11:17:05.268Z,90.83
2024-02-18T11:19:35.485Z,91.14
2024-02-18T11:22:02.963Z,91.24
2024-02-18T11:24:30.245Z,91.27
2024-02-18T11:26:57.010Z,90.87
2024-02-18T11:29:23.728Z,90.93
2024-02-18T11:31:51.443Z,90.92
2024-02-18T11:34:18.302Z,90.58
2024-02-18T11:36:45.190Z,90.51
2024-02-18T11:39:11.991Z,90.97
2024-02-18T11:41:38.775Z,90.37
2024-02-18T11:44:12.363Z,90.49
2024-02-18T11:46:41.604Z,90.29
2024-02-18T11:49:08.639Z,90.59
2024-02-18T11:51:35.700Z,90.70
2024-02-18T11:54:02.695Z,90.19
2024-02-18T11:56:29.810Z,89.90
2024-02-18T11:58:56.588Z,89.89
2024-02-18T12:01:26.912Z,89.97
2024-02-18T12:03:57.306Z,89.86
2024-02-18T12:06:24.899Z,90.04
2024-02-18T12:08:51.940Z,90.19
2024-02-18T12:11:18.856Z,90.27
2024-02-18T12:13:45.725Z,90.24
2024-02-18T12:16:12.878Z,90.34
2024-02-18T12:18:40.258Z,90.66
2024-02-18T12:21:08.182Z,89.99
2024-02-18T12:23:41.042Z,88.95
2024-02-18T12:26:07.828Z,88.86
2024-02-18T12:28:34.523Z,88.71
2024-02-18T12:31:01.287Z,88.55
2024-02-18T12:33:28.217Z,87.99
2024-02-18T12:35:55.135Z,87.59
2024-02-18T12:38:22.257Z,87.52
2024-02-18T12:40:55.410Z,86.80
2024-02-18T12:43:55.501Z,86.57
2024-02-18T12:46:11.210Z,87.54
2024-02-18T12:48:38.525Z,87.55
2024-02-18T12:51:13.617Z,86.63
2024-02-18T12:53:41.815Z,86.88
2024-02-18T12:56:09.920Z,86.74
2024-02-18T12:58:39.998Z,86.52
2024-02-18T13:01:08.184Z,86.48
2024-02-18T13:03:35.664Z,86.61
2024-02-18T13:06:03.512Z,86.90
2024-02-18T13:08:30.565Z,86.54
2024-02-18T13:10:57.794Z,86.76
2024-02-18T13:13:24.704Z,86.84
2024-02-18T13:15:54.663Z,86.60
2024-02-18T13:18:21.547Z,88.56
2024-02-18T13:20:48.450Z,87.84
2024-02-18T13:23:15.212Z,87.35
2024-02-18T13:25:41.962Z,86.93
2024-02-18T13:28:09.310Z,86.45
2024-02-18T13:30:36.208Z,85.97
2024-02-18T13:33:03.420Z,85.64
2024-02-18T13:35:30.274Z,85.44
2024-02-18T13:37:57.068Z,84.87
2024-02-18T13:40:23.900Z,84.31
2024-02-18T13:42:50.718Z,82.70
2024-02-18T13:45:18.445Z,82.60
2024-02-18T13:47:45.834Z,83.23
2024-02-18T13:50:12.893Z,83.63
2024-02-18T13:52:39.679Z,83.55
2024-02-18T13:55:06.822Z,83.55
2024-02-18T13:57:33.707Z,83.49
2024-02-18T14:00:00.568Z,83.78
2024-02-18T14:02:27.302Z,83.52
2024-02-18T14:04:54.052Z,83.36
2024-02-18T14:07:21.909Z,83.50
2024-02-18T14:09:50.145Z,83.42
2024-02-18T14:12:17.205Z,81.49
2024-02-18T14:14:49.399Z,82.11
2024-02-18T14:17:16.560Z,82.38
2024-02-18T14:19:43.690Z,82.15
2024-02-18T14:22:10.989Z,82.19
2024-02-18T14:24:37.829Z,81.82
2024-02-18T14:27:04.625Z,81.42
2024-02-18T14:29:31.467Z,81.66
2024-02-18T14:31:59.956Z,81.54
2024-02-18T14:34:28.175Z,81.71
2024-02-18T14:36:55.036Z,81.22
2024-02-18T14:39:21.720Z,81.48
2024-02-18T14:41:48.428Z,81.44
2024-02-18T14:44:15.250Z,81.38
2024-02-18T14:46:42.025Z,81.70
2024-02-18T14:49:09.573Z,81.35
2024-02-18T14:51:36.477Z,81.64
2024-02-18T14:54:03.268Z,81.05
2024-02-18T14:56:30.330Z,81.17
2024-02-18T14:58:57.286Z,80.62
2024-02-18T15:01:24.268Z,81.24
2024-02-18T15:03:51.277Z,81.12
2024-02-18T15:06:18.169Z,80.87
2024-02-18T15:08:45.153Z,81.34
2024-02-18T15:11:12.026Z,81.53
2024-02-18T15:13:39.459Z,81.30
2024-02-18T15:16:06.873Z,81.43
2024-02-18T15:18:34.304Z,81.43
2024-02-18T15:21:01.220Z,81.50
2024-02-18T15:23:28.119Z,81.77
2024-02-18T15:25:54.848Z,81.57
2024-02-18T15:28:21.602Z,81.20
2024-02-18T15:30:48.433Z,81.49
2024-02-18T15:33:15.287Z,81.20
2024-02-18T15:35:45.345Z,81.18
2024-02-18T15:38:12.079Z,81.12
2024-02-18T15:40:38.925Z,81.41
2024-02-18T15:43:06.724Z,80.91
2024-02-18T15:45:33.943Z,81.57
2024-02-18T15:48:00.866Z,81.68
2024-02-18T15:50:27.651Z,81.69
2024-02-18T15:52:54.681Z,81.42
2024-02-18T15:55:22.437Z,81.56
2024-02-18T15:57:51.167Z,81.67
2024-02-18T16:00:18.235Z,81.67
2024-02-18T16:02:45.063Z,81.70
2024-02-18T16:05:11.897Z,81.53
2024-02-18T16:07:41.953Z,81.74
2024-02-18T16:10:09.469Z,81.84
2024-02-18T16:12:36.303Z,81.88
2024-02-18T16:15:03.208Z,81.83
2024-02-18T16:17:30.290Z,81.69
2024-02-18T16:19:57.516Z,81.91
2024-02-18T16:22:24.362Z,82.11
2024-02-18T16:24:51.209Z,82.06
2024-02-18T16:27:18.064Z,81.73
2024-02-18T16:29:44.842Z,81.89
2024-02-18T16:32:13.208Z,81.56
2024-02-18T16:34:40.613Z,81.62
2024-02-18T16:37:07.871Z,81.77
2024-02-18T16:39:36.619Z,81.89
2024-02-18T16:42:04.178Z,81.61
2024-02-18T16:44:31.133Z,81.27
2024-02-18T16:47:01.202Z,81.73
2024-02-18T16:49:28.296Z,81.56
2024-02-18T16:51:59.478Z,81.55
2024-02-18T16:54:26.605Z,81.27
2024-02-18T16:56:53.359Z,81.26
2024-02-18T16:59:20.143Z,80.88
2024-02-18T17:01:51.641Z,80.73
2024-02-18T17:04:19.247Z,80.66
2024-02-18T17:06:46.364Z,80.81
2024-02-18T17:09:13.447Z,81.32
2024-02-18T17:11:40.514Z,81.74
2024-02-18T17:14:07.303Z,82.42
2024-02-18T17:16:37.289Z,82.92
2024-02-18T17:19:08.165Z,82.93
2024-02-18T17:21:35.276Z,83.39
2024-02-18T17:24:05.239Z,83.74
2024-02-18T17:26:32.572Z,84.10
2024-02-18T17:28:59.632Z,84.45
2024-02-18T17:31:27.375Z,84.93
2024-02-18T17:33:57.263Z,85.12
2024-02-18T17:36:24.548Z,85.09
2024-02-18T17:38:51.283Z,85.06
2024-02-18T17:41:18.260Z,85.53
2024-02-18T17:43:45.008Z,86.11
2024-02-18T17:46:11.926Z,86.64
2024-02-18T17:48:39.666Z,86.27
2024-02-18T17:51:07.597Z,86.84
2024-02-18T17:53:35.734Z,87.05
2024-02-18T17:56:02.646Z,87.56
2024-02-18T17:58:30.976Z,87.53
2024-02-18T18:00:57.903Z,87.71
2024-02-18T18:03:24.717Z,87.86
2024-02-18T18:05:51.663Z,87.94
2024-02-18T18:08:18.459Z,88.00
2024-02-18T18:10:45.275Z,87.89
2024-02-18T18:13:12.274Z,88.18
2024-02-18T18:15:39.333Z,88.44
2024-02-18T18:18:06.370Z,88.93
2024-02-18T18:20:33.513Z,88.91
2024-02-18T18:23:00.358Z,88.72
2024-02-18T18:25:27.128Z,87.75
2024-02-18T18:27:54.003Z,87.84
2024-02-18T18:30:20.879Z,88.69
2024-02-18T18:32:48.614Z,89.73
2024-02-18T18:35:15.500Z,89.56
2024-02-18T18:37:42.506Z,89.94
2024-02-18T18:40:09.875Z,90.27
2024-02-18T18:42:38.017Z,90.06
2024-02-18T18:45:08.498Z,90.62
2024-02-18T18:47:36.081Z,90.62
2024-02-18T18:50:05.973Z,90.35
2024-02-18T18:52:33.634Z,90.58
2024-02-18T18:55:00.815Z,90.70
2024-02-18T18:57:28.419Z,90.69
2024-02-18T18:59:55.166Z,91.07
2024-02-18T19:02:21.981Z,91.38
2024-02-18T19:04:49.422Z,91.20
2024-02-18T19:07:18.792Z,91.23
2024-02-18T19:09:45.594Z,91.40
2024-02-18T19:12:12.408Z,91.72
2024-02-18T19:14:39.099Z,91.33
2024-02-18T19:17:05.882Z,91.30
2024-02-18T19:19:32.741Z,91.49
2024-02-18T19:22:00.980Z,92.11
2024-02-18T19:24:27.986Z,91.46
2024-02-18T19:26:54.666Z,92.86
2024-02-18T19:29:23.629Z,91.47
2024-02-18T19:31:52.755Z,92.90
2024-02-18T19:34:19.673Z,92.94
2024-02-18T19:36:51.213Z,92.80
2024-02-18T19:39:18.304Z,93.58
2024-02-18T19:41:46.577Z,93.05
2024-02-18T19:44:13.616Z,93.79
2024-02-18T19:46:41.918Z,93.18
2024-02-18T19:49:09.322Z,93.09
2024-02-18T19:51:36.152Z,93.80
2024-02-18T19:54:02.984Z,94.40
2024-02-18T19:56:30.202Z,94.72
2024-02-18T19:58:57.055Z,94.13
2024-02-18T20:01:24.196Z,94.37
2024-02-18T20:03:51.523Z,95.68
2024-02-18T20:06:18.605Z,94.57
2024-02-18T20:08:45.625Z,94.67
2024-02-18T20:11:12.452Z,95.85
2024-02-18T20:13:39.149Z,95.21
2024-02-18T20:16:06.366Z,96.54
2024-02-18T20:18:33.773Z,95.84
2024-02-18T20:21:02.825Z,96.55
2024-02-18T20:23:29.639Z,96.52
2024-02-18T20:25:56.430Z,95.86
2024-02-18T20:28:23.399Z,97.21
2024-02-18T20:30:50.570Z,97.58
2024-02-18T20:33:17.491Z,98.06
2024-02-18T20:35:45.410Z,97.81
2024-02-18T20:38:12.195Z,96.88
2024-02-18T20:40:39.108Z,96.71
2024-02-18T20:43:06.027Z,97.61
2024-02-18T20:45:33.435Z,96.56
2024-02-18T20:48:00.498Z,97.20
2024-02-18T20:50:27.366Z,97.58
2024-02-18T20:52:54.160Z,97.50
2024-02-18T20:55:23.566Z,98.16
2024-02-18T20:57:50.944Z,97.40
2024-02-18T21:00:18.054Z,97.93
2024-02-18T21:02:45.521Z,98.00
2024-02-18T21:05:13.463Z,99.55
2024-02-18T21:07:40.550Z,98.33
2024-02-18T21:10:07.810Z,98.05
2024-02-18T21:12:35.178Z,98.11
2024-02-18T21:15:02.181Z,97.70
2024-02-18T21:17:29.248Z,97.68
2024-02-18T21:19:56.359Z,97.64
2024-02-18T21:22:23.302Z,97.53
2024-02-18T21:24:50.154Z,97.65
2024-02-18T21:27:16.942Z,97.44
2024-02-18T21:29:43.778Z,97.03
2024-02-18T21:32:11.915Z,97.06
2024-02-18T21:34:39.112Z,97.25
2024-02-18T21:37:06.042Z,97.68
2024-02-18T21:39:41.012Z,97.21
2024-02-18T21:42:14.747Z,97.71
2024-02-18T21:44:41.721Z,97.68
2024-02-18T21:47:08.525Z,97.63
2024-02-18T21:49:36.203Z,98.59
2024-02-18T21:52:03.997Z,97.95
2024-02-18T21:54:31.062Z,98.55
2024-02-18T21:56:58.025Z,98.35
2024-02-18T21:59:25.005Z,98.12
2024-02-18T22:01:53.308Z,98.77
2024-02-18T22:04:20.682Z,98.65
2024-02-18T22:06:59.599Z,98.26
2024-02-18T22:09:34.471Z,98.61
2024-02-18T22:12:01.199Z,98.59
2024-02-18T22:14:28.096Z,98.52
2024-02-18T22:16:54.992Z,98.96
2024-02-18T22:19:21.895Z,98.74
2024-02-18T22:21:48.814Z,98.68
2024-02-18T22:24:15.709Z,98.79
2024-02-18T22:26:42.596Z,98.73
2024-02-18T22:29:09.506Z,98.80
2024-02-18T22:31:36.287Z,98.69
2024-02-18T22:34:03.277Z,98.85
2024-02-18T22:36:30.169Z,98.59
2024-02-18T22:38:57.214Z,99.36
2024-02-18T22:41:24.030Z,99.09
2024-02-18T22:43:50.759Z,98.79
2024-02-18T22:46:17.750Z,98.92
2024-02-18T22:48:44.696Z,98.62
2024-02-18T22:51:11.577Z,98.80
2024-02-18T22:53:42.145Z,98.74
2024-02-18T22:56:09.536Z,98.96
2024-02-18T22:58:37.124Z,98.96
2024-02-18T23:01:04.654Z,99.03
2024-02-18T23:03:31.466Z,99.54
2024-02-18T23:05:58.250Z,99.45
2024-02-18T23:08:25.299Z,99.30
2024-02-18T23:10:52.238Z,99.51
2024-02-18T23:13:19.303Z,99.18
2024-02-18T23:15:46.490Z,99.50
2024-02-18T23:18:13.366Z,99.24
2024-02-18T23:20:40.624Z,100.00
2024-02-18T23:23:07.870Z,99.78
2024-02-18T23:25:34.758Z,99.59
2024-02-18T23:28:01.600Z,99.27
2024-02-18T23:30:28.405Z,99.19
2024-02-18T23:32:55.645Z,99.63
2024-02-18T23:35:25.216Z,99.15
2024-02-18T23:37:52.140Z,99.55
2024-02-18T23:40:19.136Z,99.73
2024-02-18T23:42:46.030Z,99.22
2024-02-18T23:45:12.819Z,99.37
2024-02-18T23:47:39.674Z,99.08
2024-02-18T23:50:07.106Z,99.01
2024-02-18T23:52:33.961Z,99.19
2024-02-18T23:55:00.806Z,98.76
2024-02-18T23:57:27.820Z,99.12
2024-02-18T23:59:54.741Z,99.30
